<?xml version="1.0" encoding="UTF-8" standalone="no" ?>
<gpx xmlns="http://www.topografix.com/GPX/1/1" xmlns:xsi="http://www.w3.org/2001/XMLSchema-instance" xsi:schemaLocation="http://www.topografix.com/GPX/1/1 http://www.topografix.com/GPX/1/1/gpx.xsd" version="1.1" creator="VisuGPX - https://www.visugpx.com">
  <metadata>
    <name>La Grande Cournouse, de la Grotte de Pabro au Pas de l'Allier</name>
  </metadata>
  <wpt lat="45.05762" lon="5.37319">
    <ele>515</ele>
    <name><![CDATA[Mairie de Châtelus]]></name>
  </wpt>
  <wpt lat="45.05673" lon="5.37386">
    <ele>516</ele>
    <name><![CDATA[Départ des chemins]]></name>
  </wpt>
  <wpt lat="45.05657" lon="5.38467">
    <ele>889</ele>
    <name><![CDATA[Bifurcation Grotte - Pas de Pabro]]></name>
  </wpt>
  <wpt lat="45.057" lon="5.38657">
    <ele>898</ele>
    <name><![CDATA[Grotte de Pabro]]></name>
  </wpt>
  <wpt lat="45.05599" lon="5.38575">
    <ele>953</ele>
    <name><![CDATA[Sommet du Pas de Pabro]]></name>
  </wpt>
  <wpt lat="45.05254" lon="5.38157">
    <ele>1050</ele>
    <name><![CDATA[Falaise de la Grande Cournouse]]></name>
  </wpt>
  <wpt lat="45.04638" lon="5.39348">
    <ele>1090</ele>
    <name><![CDATA[Fontaine de Charmate (site archéologique)]]></name>
  </wpt>
  <wpt lat="45.04671" lon="5.39049">
    <ele>1117</ele>
    <name><![CDATA[Sommet sentier du Pas des Voûtes]]></name>
  </wpt>
  <wpt lat="45.04342" lon="5.39952">
    <ele>1235</ele>
    <name><![CDATA[Point de vue de la Charmate]]></name>
  </wpt>
  <wpt lat="45.0365" lon="5.40629">
    <ele>1150</ele>
    <name><![CDATA[Croisement GRP]]></name>
  </wpt>
  <wpt lat="45.0332" lon="5.39989">
    <ele>1149</ele>
    <name><![CDATA[Pas de l'Allier]]></name>
  </wpt>
  <wpt lat="45.04486" lon="5.38562">
    <ele>782</ele>
    <name><![CDATA[Croisement sentier du Pas des Voûtes]]></name>
  </wpt>
  <wpt lat="45.05286" lon="5.37136">
    <ele>566</ele>
    <name><![CDATA[Bifurcation vers Chatelus]]></name>
  </wpt>
  <wpt lat="45.05762" lon="5.37319">
    <ele>515</ele>
    <name><![CDATA[Mairie de Châtelus]]></name>
  </wpt>
  <trk>
    <name><![CDATA[La Grande Cournouse, de la Grotte de Pabro au Pas de l'Allier]]></name>
    <trkseg>
      <trkpt lat="45.05762" lon="5.37319">
        <ele>515</ele>
        <time>2022-08-15T14:41:44+02:00</time>
      </trkpt>
      <trkpt lat="45.0574" lon="5.37334">
        <ele>512</ele>
        <time>2022-08-15T14:43:36+02:00</time>
      </trkpt>
      <trkpt lat="45.05726" lon="5.37358">
        <ele>511</ele>
        <time>2022-08-15T14:43:49+02:00</time>
      </trkpt>
      <trkpt lat="45.05711" lon="5.37399">
        <ele>518</ele>
        <time>2022-08-15T14:44:20+02:00</time>
      </trkpt>
      <trkpt lat="45.05694" lon="5.37404">
        <ele>517</ele>
        <time>2022-08-15T14:44:35+02:00</time>
      </trkpt>
      <trkpt lat="45.05673" lon="5.37386">
        <ele>516</ele>
        <time>2022-08-15T14:45:06+02:00</time>
      </trkpt>
      <trkpt lat="45.05692" lon="5.37414">
        <ele>521</ele>
        <time>2022-08-15T14:46:11+02:00</time>
      </trkpt>
      <trkpt lat="45.05712" lon="5.37436">
        <ele>529</ele>
        <time>2022-08-15T14:46:29+02:00</time>
      </trkpt>
      <trkpt lat="45.05706" lon="5.37478">
        <ele>538</ele>
        <time>2022-08-15T14:47:49+02:00</time>
      </trkpt>
      <trkpt lat="45.05683" lon="5.37518">
        <ele>552</ele>
        <time>2022-08-15T14:49:33+02:00</time>
      </trkpt>
      <trkpt lat="45.05647" lon="5.37517">
        <ele>565</ele>
        <time>2022-08-15T14:51:05+02:00</time>
      </trkpt>
      <trkpt lat="45.05624" lon="5.375">
        <ele>569</ele>
        <time>2022-08-15T14:51:44+02:00</time>
      </trkpt>
      <trkpt lat="45.05595" lon="5.37499">
        <ele>579</ele>
        <time>2022-08-15T14:52:55+02:00</time>
      </trkpt>
      <trkpt lat="45.05601" lon="5.3755">
        <ele>591</ele>
        <time>2022-08-15T14:54:34+02:00</time>
      </trkpt>
      <trkpt lat="45.05603" lon="5.37601">
        <ele>604</ele>
        <time>2022-08-15T14:56:20+02:00</time>
      </trkpt>
      <trkpt lat="45.056" lon="5.37638">
        <ele>616</ele>
        <time>2022-08-15T14:57:24+02:00</time>
      </trkpt>
      <trkpt lat="45.056" lon="5.37677">
        <ele>628</ele>
        <time>2022-08-15T14:59:19+02:00</time>
      </trkpt>
      <trkpt lat="45.05606" lon="5.37711">
        <ele>636</ele>
        <time>2022-08-15T15:00:05+02:00</time>
      </trkpt>
      <trkpt lat="45.05623" lon="5.3775">
        <ele>641</ele>
        <time>2022-08-15T15:02:09+02:00</time>
      </trkpt>
      <trkpt lat="45.05634" lon="5.378">
        <ele>655</ele>
        <time>2022-08-15T15:03:37+02:00</time>
      </trkpt>
      <trkpt lat="45.05649" lon="5.37846">
        <ele>671</ele>
        <time>2022-08-15T15:05:06+02:00</time>
      </trkpt>
      <trkpt lat="45.05669" lon="5.37875">
        <ele>684</ele>
        <time>2022-08-15T15:06:48+02:00</time>
      </trkpt>
      <trkpt lat="45.05695" lon="5.37876">
        <ele>694</ele>
        <time>2022-08-15T15:07:46+02:00</time>
      </trkpt>
      <trkpt lat="45.05726" lon="5.37878">
        <ele>710</ele>
        <time>2022-08-15T15:09:18+02:00</time>
      </trkpt>
      <trkpt lat="45.05737" lon="5.3789">
        <ele>716</ele>
      </trkpt>
      <trkpt lat="45.05699" lon="5.37939">
        <ele>718</ele>
        <time>2022-08-15T15:10:40+02:00</time>
      </trkpt>
      <trkpt lat="45.05673" lon="5.37977">
        <ele>727</ele>
        <time>2022-08-15T15:12:39+02:00</time>
      </trkpt>
      <trkpt lat="45.05668" lon="5.38056">
        <ele>744</ele>
        <time>2022-08-15T15:15:38+02:00</time>
      </trkpt>
      <trkpt lat="45.05678" lon="5.38127">
        <ele>756</ele>
        <time>2022-08-15T15:17:51+02:00</time>
      </trkpt>
      <trkpt lat="45.05679" lon="5.38185">
        <ele>768</ele>
        <time>2022-08-15T15:19:04+02:00</time>
      </trkpt>
      <trkpt lat="45.0567" lon="5.3826">
        <ele>794</ele>
        <time>2022-08-15T15:21:18+02:00</time>
      </trkpt>
      <trkpt lat="45.05657" lon="5.38336">
        <ele>852</ele>
        <time>2022-08-15T15:26:04+02:00</time>
      </trkpt>
      <trkpt lat="45.05657" lon="5.38467">
        <ele>889</ele>
        <time>2022-08-15T15:30:24+02:00</time>
      </trkpt>
      <trkpt lat="45.05666" lon="5.38503">
        <ele>877</ele>
        <time>2022-08-15T15:31:27+02:00</time>
      </trkpt>
      <trkpt lat="45.05678" lon="5.3853">
        <ele>860</ele>
        <time>2022-08-15T15:32:04+02:00</time>
      </trkpt>
      <trkpt lat="45.05694" lon="5.38583">
        <ele>852</ele>
        <time>2022-08-15T15:32:31+02:00</time>
      </trkpt>
      <trkpt lat="45.05703" lon="5.38622">
        <ele>868</ele>
        <time>2022-08-15T15:36:30+02:00</time>
      </trkpt>
      <trkpt lat="45.05704" lon="5.38645">
        <ele>885</ele>
        <time>2022-08-15T15:38:38+02:00</time>
      </trkpt>
      <trkpt lat="45.057" lon="5.38657">
        <ele>898</ele>
        <time>2022-08-15T15:39:37+02:00</time>
      </trkpt>
      <trkpt lat="45.05703" lon="5.38621">
        <ele>866</ele>
        <time>2022-08-15T16:59:27+02:00</time>
      </trkpt>
      <trkpt lat="45.05694" lon="5.38582">
        <ele>852</ele>
        <time>2022-08-15T17:07:34+02:00</time>
      </trkpt>
      <trkpt lat="45.05678" lon="5.3853">
        <ele>860</ele>
        <time>2022-08-15T17:10:02+02:00</time>
      </trkpt>
      <trkpt lat="45.05666" lon="5.38503">
        <ele>877</ele>
        <time>2022-08-15T17:10:34+02:00</time>
      </trkpt>
      <trkpt lat="45.05646" lon="5.38484">
        <ele>915</ele>
      </trkpt>
      <trkpt lat="45.05629" lon="5.38503">
        <ele>943</ele>
        <time>2022-08-15T17:18:13+02:00</time>
      </trkpt>
      <trkpt lat="45.05622" lon="5.38532">
        <ele>948</ele>
      </trkpt>
      <trkpt lat="45.0561" lon="5.38556">
        <ele>953</ele>
      </trkpt>
      <trkpt lat="45.05599" lon="5.38575">
        <ele>953</ele>
        <time>2022-08-15T17:27:17+02:00</time>
      </trkpt>
      <trkpt lat="45.05598" lon="5.38575">
        <ele>953</ele>
        <time>2022-08-15T17:39:39+02:00</time>
      </trkpt>
      <trkpt lat="45.05561" lon="5.38542">
        <ele>968</ele>
        <time>2022-08-15T17:42:15+02:00</time>
      </trkpt>
      <trkpt lat="45.05531" lon="5.38502">
        <ele>983</ele>
        <time>2022-08-15T17:43:22+02:00</time>
      </trkpt>
      <trkpt lat="45.05519" lon="5.38476">
        <ele>991</ele>
        <time>2022-08-15T17:44:00+02:00</time>
      </trkpt>
      <trkpt lat="45.05504" lon="5.38458">
        <ele>997</ele>
        <time>2022-08-15T17:46:05+02:00</time>
      </trkpt>
      <trkpt lat="45.05465" lon="5.38444">
        <ele>1001</ele>
        <time>2022-08-15T17:46:21+02:00</time>
      </trkpt>
      <trkpt lat="45.05441" lon="5.38405">
        <ele>1009</ele>
        <time>2022-08-15T17:47:04+02:00</time>
      </trkpt>
      <trkpt lat="45.05416" lon="5.38368">
        <ele>1015</ele>
        <time>2022-08-15T17:50:14+02:00</time>
      </trkpt>
      <trkpt lat="45.05384" lon="5.38317">
        <ele>1030</ele>
        <time>2022-08-15T17:50:42+02:00</time>
      </trkpt>
      <trkpt lat="45.05332" lon="5.38265">
        <ele>1043</ele>
        <time>2022-08-15T17:54:24+02:00</time>
      </trkpt>
      <trkpt lat="45.05283" lon="5.38215">
        <ele>1058</ele>
        <time>2022-08-15T17:56:07+02:00</time>
      </trkpt>
      <trkpt lat="45.05241" lon="5.38175">
        <ele>1061</ele>
        <time>2022-08-15T17:56:34+02:00</time>
      </trkpt>
      <trkpt lat="45.05254" lon="5.38157">
        <ele>1050</ele>
        <time>2022-08-15T17:56:57+02:00</time>
      </trkpt>
      <trkpt lat="45.05236" lon="5.38176">
        <ele>1062</ele>
        <time>2022-08-15T18:00:04+02:00</time>
      </trkpt>
      <trkpt lat="45.05243" lon="5.38221">
        <ele>1065</ele>
        <time>2022-08-15T18:00:22+02:00</time>
      </trkpt>
      <trkpt lat="45.05261" lon="5.38287">
        <ele>1061</ele>
        <time>2022-08-15T18:00:49+02:00</time>
      </trkpt>
      <trkpt lat="45.05239" lon="5.38363">
        <ele>1074</ele>
        <time>2022-08-15T18:02:09+02:00</time>
      </trkpt>
      <trkpt lat="45.05223" lon="5.38437">
        <ele>1088</ele>
        <time>2022-08-15T18:03:33+02:00</time>
      </trkpt>
      <trkpt lat="45.05206" lon="5.38475">
        <ele>1092</ele>
        <time>2022-08-15T18:04:31+02:00</time>
      </trkpt>
      <trkpt lat="45.05171" lon="5.3849">
        <ele>1099</ele>
        <time>2022-08-15T18:05:28+02:00</time>
      </trkpt>
      <trkpt lat="45.05131" lon="5.38544">
        <ele>1100</ele>
        <time>2022-08-15T18:06:38+02:00</time>
      </trkpt>
      <trkpt lat="45.05098" lon="5.38579">
        <ele>1103</ele>
      </trkpt>
      <trkpt lat="45.05085" lon="5.38593">
        <ele>1106</ele>
        <time>2022-08-15T18:08:37+02:00</time>
      </trkpt>
      <trkpt lat="45.05068" lon="5.38649">
        <ele>1105</ele>
        <time>2022-08-15T18:09:02+02:00</time>
      </trkpt>
      <trkpt lat="45.05023" lon="5.38716">
        <ele>1114</ele>
        <time>2022-08-15T18:11:03+02:00</time>
      </trkpt>
      <trkpt lat="45.0499" lon="5.38749">
        <ele>1116</ele>
        <time>2022-08-15T18:12:07+02:00</time>
      </trkpt>
      <trkpt lat="45.0498" lon="5.38764">
        <ele>1114</ele>
      </trkpt>
      <trkpt lat="45.0496" lon="5.38775">
        <ele>1115</ele>
        <time>2022-08-15T18:12:29+02:00</time>
      </trkpt>
      <trkpt lat="45.04925" lon="5.388">
        <ele>1109</ele>
        <time>2022-08-15T18:13:14+02:00</time>
      </trkpt>
      <trkpt lat="45.049" lon="5.38816">
        <ele>1106</ele>
        <time>2022-08-15T18:13:39+02:00</time>
      </trkpt>
      <trkpt lat="45.04858" lon="5.38845">
        <ele>1101</ele>
        <time>2022-08-15T18:14:47+02:00</time>
      </trkpt>
      <trkpt lat="45.04811" lon="5.38866">
        <ele>1099</ele>
        <time>2022-08-15T18:15:21+02:00</time>
      </trkpt>
      <trkpt lat="45.04755" lon="5.38903">
        <ele>1094</ele>
        <time>2022-08-15T18:17:05+02:00</time>
      </trkpt>
      <trkpt lat="45.04729" lon="5.38919">
        <ele>1092</ele>
        <time>2022-08-15T18:17:53+02:00</time>
      </trkpt>
      <trkpt lat="45.04722" lon="5.38957">
        <ele>1090</ele>
      </trkpt>
      <trkpt lat="45.04712" lon="5.38979">
        <ele>1091</ele>
        <time>2022-08-15T18:21:09+02:00</time>
      </trkpt>
      <trkpt lat="45.04708" lon="5.39008">
        <ele>1098</ele>
        <time>2022-08-15T18:22:55+02:00</time>
      </trkpt>
      <trkpt lat="45.04726" lon="5.39064">
        <ele>1103</ele>
        <time>2022-08-15T18:23:21+02:00</time>
      </trkpt>
      <trkpt lat="45.04742" lon="5.39112">
        <ele>1101</ele>
        <time>2022-08-15T18:25:29+02:00</time>
      </trkpt>
      <trkpt lat="45.04735" lon="5.39123">
        <ele>1098</ele>
      </trkpt>
      <trkpt lat="45.04699" lon="5.39136">
        <ele>1103</ele>
        <time>2022-08-15T18:26:01+02:00</time>
      </trkpt>
      <trkpt lat="45.04675" lon="5.39146">
        <ele>1113</ele>
        <time>2022-08-15T18:27:04+02:00</time>
      </trkpt>
      <trkpt lat="45.04651" lon="5.39182">
        <ele>1111</ele>
        <time>2022-08-15T18:27:54+02:00</time>
      </trkpt>
      <trkpt lat="45.04639" lon="5.39238">
        <ele>1092</ele>
        <time>2022-08-15T18:30:52+02:00</time>
      </trkpt>
      <trkpt lat="45.04629" lon="5.39264">
        <ele>1108</ele>
        <time>2022-08-15T18:31:56+02:00</time>
      </trkpt>
      <trkpt lat="45.04635" lon="5.39323">
        <ele>1094</ele>
        <time>2022-08-15T18:32:52+02:00</time>
      </trkpt>
      <trkpt lat="45.04638" lon="5.39348">
        <ele>1090</ele>
        <time>2022-08-15T18:34:15+02:00</time>
      </trkpt>
      <trkpt lat="45.04634" lon="5.39323">
        <ele>1094</ele>
        <time>2022-08-15T18:36:00+02:00</time>
      </trkpt>
      <trkpt lat="45.0463" lon="5.39265">
        <ele>1107</ele>
        <time>2022-08-15T18:36:47+02:00</time>
      </trkpt>
      <trkpt lat="45.04639" lon="5.39238">
        <ele>1092</ele>
        <time>2022-08-15T18:37:56+02:00</time>
      </trkpt>
      <trkpt lat="45.04652" lon="5.39182">
        <ele>1111</ele>
        <time>2022-08-15T18:38:57+02:00</time>
      </trkpt>
      <trkpt lat="45.04675" lon="5.39147">
        <ele>1113</ele>
        <time>2022-08-15T18:39:57+02:00</time>
      </trkpt>
      <trkpt lat="45.04699" lon="5.39138">
        <ele>1103</ele>
        <time>2022-08-15T18:40:09+02:00</time>
      </trkpt>
      <trkpt lat="45.04736" lon="5.39121">
        <ele>1098</ele>
        <time>2022-08-15T18:40:20+02:00</time>
      </trkpt>
      <trkpt lat="45.04741" lon="5.39111">
        <ele>1102</ele>
        <time>2022-08-15T18:40:37+02:00</time>
      </trkpt>
      <trkpt lat="45.04726" lon="5.39064">
        <ele>1103</ele>
        <time>2022-08-15T18:42:23+02:00</time>
      </trkpt>
      <trkpt lat="45.04704" lon="5.39063">
        <ele>1111</ele>
        <time>2022-08-15T18:43:01+02:00</time>
      </trkpt>
      <trkpt lat="45.04682" lon="5.39046">
        <ele>1114</ele>
        <time>2022-08-15T18:43:27+02:00</time>
      </trkpt>
      <trkpt lat="45.04671" lon="5.39049">
        <ele>1117</ele>
        <time>2022-08-15T18:44:00+02:00</time>
      </trkpt>
      <trkpt lat="45.04678" lon="5.39071">
        <ele>1120</ele>
        <time>2022-08-15T18:47:58+02:00</time>
      </trkpt>
      <trkpt lat="45.04681" lon="5.39092">
        <ele>1121</ele>
        <time>2022-08-15T18:48:34+02:00</time>
      </trkpt>
      <trkpt lat="45.04689" lon="5.39112">
        <ele>1118</ele>
        <time>2022-08-15T18:49:14+02:00</time>
      </trkpt>
      <trkpt lat="45.04662" lon="5.39112">
        <ele>1128</ele>
        <time>2022-08-15T18:51:34+02:00</time>
      </trkpt>
      <trkpt lat="45.04642" lon="5.39113">
        <ele>1133</ele>
        <time>2022-08-15T18:52:09+02:00</time>
      </trkpt>
      <trkpt lat="45.04627" lon="5.39126">
        <ele>1135</ele>
        <time>2022-08-15T18:52:40+02:00</time>
      </trkpt>
      <trkpt lat="45.04601" lon="5.39157">
        <ele>1146</ele>
        <time>2022-08-15T18:53:52+02:00</time>
      </trkpt>
      <trkpt lat="45.04593" lon="5.39209">
        <ele>1156</ele>
        <time>2022-08-15T18:55:12+02:00</time>
      </trkpt>
      <trkpt lat="45.04586" lon="5.3925">
        <ele>1159</ele>
        <time>2022-08-15T18:55:49+02:00</time>
      </trkpt>
      <trkpt lat="45.04575" lon="5.39252">
        <ele>1160</ele>
      </trkpt>
      <trkpt lat="45.04564" lon="5.39239">
        <ele>1160</ele>
        <time>2022-08-15T18:56:14+02:00</time>
      </trkpt>
      <trkpt lat="45.04547" lon="5.39215">
        <ele>1160</ele>
        <time>2022-08-15T18:57:39+02:00</time>
      </trkpt>
      <trkpt lat="45.04518" lon="5.39183">
        <ele>1160</ele>
        <time>2022-08-15T18:58:20+02:00</time>
      </trkpt>
      <trkpt lat="45.04483" lon="5.39174">
        <ele>1160</ele>
        <time>2022-08-15T18:58:35+02:00</time>
      </trkpt>
      <trkpt lat="45.04471" lon="5.3918">
        <ele>1160</ele>
        <time>2022-08-15T18:59:01+02:00</time>
      </trkpt>
      <trkpt lat="45.04466" lon="5.39204">
        <ele>1160</ele>
        <time>2022-08-15T18:59:24+02:00</time>
      </trkpt>
      <trkpt lat="45.04464" lon="5.39272">
        <ele>1160</ele>
        <time>2022-08-15T19:00:16+02:00</time>
      </trkpt>
      <trkpt lat="45.04456" lon="5.39316">
        <ele>1161</ele>
        <time>2022-08-15T19:00:40+02:00</time>
      </trkpt>
      <trkpt lat="45.04433" lon="5.3937">
        <ele>1166</ele>
        <time>2022-08-15T19:01:51+02:00</time>
      </trkpt>
      <trkpt lat="45.04423" lon="5.3937">
        <ele>1168</ele>
        <time>2022-08-15T19:02:14+02:00</time>
      </trkpt>
      <trkpt lat="45.04413" lon="5.39341">
        <ele>1170</ele>
        <time>2022-08-15T19:02:38+02:00</time>
      </trkpt>
      <trkpt lat="45.04395" lon="5.39321">
        <ele>1175</ele>
        <time>2022-08-15T19:03:02+02:00</time>
      </trkpt>
      <trkpt lat="45.04368" lon="5.39306">
        <ele>1179</ele>
        <time>2022-08-15T19:03:50+02:00</time>
      </trkpt>
      <trkpt lat="45.04352" lon="5.39307">
        <ele>1180</ele>
        <time>2022-08-15T19:04:08+02:00</time>
      </trkpt>
      <trkpt lat="45.04346" lon="5.39325">
        <ele>1184</ele>
        <time>2022-08-15T19:04:40+02:00</time>
      </trkpt>
      <trkpt lat="45.04346" lon="5.39349">
        <ele>1187</ele>
        <time>2022-08-15T19:05:40+02:00</time>
      </trkpt>
      <trkpt lat="45.04332" lon="5.39365">
        <ele>1193</ele>
      </trkpt>
      <trkpt lat="45.04332" lon="5.39376">
        <ele>1196</ele>
      </trkpt>
      <trkpt lat="45.04343" lon="5.394">
        <ele>1197</ele>
        <time>2022-08-15T19:07:19+02:00</time>
      </trkpt>
      <trkpt lat="45.04351" lon="5.39435">
        <ele>1201</ele>
        <time>2022-08-15T19:08:06+02:00</time>
      </trkpt>
      <trkpt lat="45.0436" lon="5.39486">
        <ele>1206</ele>
        <time>2022-08-15T19:08:53+02:00</time>
      </trkpt>
      <trkpt lat="45.04354" lon="5.39513">
        <ele>1209</ele>
        <time>2022-08-15T19:09:22+02:00</time>
      </trkpt>
      <trkpt lat="45.04337" lon="5.39553">
        <ele>1211</ele>
        <time>2022-08-15T19:10:10+02:00</time>
      </trkpt>
      <trkpt lat="45.04326" lon="5.39577">
        <ele>1211</ele>
        <time>2022-08-15T19:10:25+02:00</time>
      </trkpt>
      <trkpt lat="45.04305" lon="5.39598">
        <ele>1215</ele>
        <time>2022-08-15T19:11:22+02:00</time>
      </trkpt>
      <trkpt lat="45.04282" lon="5.39656">
        <ele>1215</ele>
        <time>2022-08-15T19:12:01+02:00</time>
      </trkpt>
      <trkpt lat="45.04278" lon="5.39674">
        <ele>1217</ele>
        <time>2022-08-15T19:12:15+02:00</time>
      </trkpt>
      <trkpt lat="45.04279" lon="5.39711">
        <ele>1221</ele>
        <time>2022-08-15T19:12:44+02:00</time>
      </trkpt>
      <trkpt lat="45.04286" lon="5.39759">
        <ele>1227</ele>
        <time>2022-08-15T19:13:12+02:00</time>
      </trkpt>
      <trkpt lat="45.04317" lon="5.39808">
        <ele>1227</ele>
        <time>2022-08-15T19:14:19+02:00</time>
      </trkpt>
      <trkpt lat="45.04348" lon="5.39867">
        <ele>1228</ele>
        <time>2022-08-15T19:15:30+02:00</time>
      </trkpt>
      <trkpt lat="45.04363" lon="5.39888">
        <ele>1214</ele>
        <time>2022-08-15T19:16:05+02:00</time>
      </trkpt>
      <trkpt lat="45.04358" lon="5.39899">
        <ele>1218</ele>
        <time>2022-08-15T19:17:20+02:00</time>
      </trkpt>
      <trkpt lat="45.04343" lon="5.39909">
        <ele>1231</ele>
      </trkpt>
      <trkpt lat="45.04331" lon="5.39928">
        <ele>1244</ele>
      </trkpt>
      <trkpt lat="45.04342" lon="5.39952">
        <ele>1235</ele>
        <time>2022-08-15T19:19:23+02:00</time>
      </trkpt>
      <trkpt lat="45.0433" lon="5.39946">
        <ele>1247</ele>
        <time>2022-08-15T19:21:12+02:00</time>
      </trkpt>
      <trkpt lat="45.04275" lon="5.39938">
        <ele>1250</ele>
        <time>2022-08-15T19:21:49+02:00</time>
      </trkpt>
      <trkpt lat="45.04237" lon="5.39971">
        <ele>1246</ele>
        <time>2022-08-15T19:23:19+02:00</time>
      </trkpt>
      <trkpt lat="45.04191" lon="5.40039">
        <ele>1227</ele>
        <time>2022-08-15T19:24:29+02:00</time>
      </trkpt>
      <trkpt lat="45.04164" lon="5.40133">
        <ele>1207</ele>
        <time>2022-08-15T19:26:27+02:00</time>
      </trkpt>
      <trkpt lat="45.04145" lon="5.40199">
        <ele>1193</ele>
        <time>2022-08-15T19:29:08+02:00</time>
      </trkpt>
      <trkpt lat="45.04113" lon="5.40284">
        <ele>1176</ele>
        <time>2022-08-15T19:30:31+02:00</time>
      </trkpt>
      <trkpt lat="45.04081" lon="5.40406">
        <ele>1158</ele>
        <time>2022-08-15T19:31:56+02:00</time>
      </trkpt>
      <trkpt lat="45.04057" lon="5.40384">
        <ele>1156</ele>
        <time>2022-08-15T19:32:36+02:00</time>
      </trkpt>
      <trkpt lat="45.04022" lon="5.40378">
        <ele>1152</ele>
        <time>2022-08-15T19:33:30+02:00</time>
      </trkpt>
      <trkpt lat="45.03998" lon="5.4037">
        <ele>1150</ele>
        <time>2022-08-15T19:34:01+02:00</time>
      </trkpt>
      <trkpt lat="45.03961" lon="5.40406">
        <ele>1148</ele>
        <time>2022-08-15T19:34:57+02:00</time>
      </trkpt>
      <trkpt lat="45.03926" lon="5.4045">
        <ele>1151</ele>
        <time>2022-08-15T19:35:51+02:00</time>
      </trkpt>
      <trkpt lat="45.03907" lon="5.40488">
        <ele>1152</ele>
        <time>2022-08-15T19:36:50+02:00</time>
      </trkpt>
      <trkpt lat="45.03867" lon="5.40526">
        <ele>1153</ele>
        <time>2022-08-15T19:37:10+02:00</time>
      </trkpt>
      <trkpt lat="45.03834" lon="5.40555">
        <ele>1148</ele>
        <time>2022-08-15T19:38:12+02:00</time>
      </trkpt>
      <trkpt lat="45.03806" lon="5.4057">
        <ele>1143</ele>
        <time>2022-08-15T19:38:39+02:00</time>
      </trkpt>
      <trkpt lat="45.03783" lon="5.4061">
        <ele>1142</ele>
        <time>2022-08-15T19:39:30+02:00</time>
      </trkpt>
      <trkpt lat="45.03766" lon="5.40628">
        <ele>1143</ele>
        <time>2022-08-15T19:39:48+02:00</time>
      </trkpt>
      <trkpt lat="45.0375" lon="5.40641">
        <ele>1144</ele>
        <time>2022-08-15T19:40:33+02:00</time>
      </trkpt>
      <trkpt lat="45.03723" lon="5.40621">
        <ele>1145</ele>
        <time>2022-08-15T19:40:47+02:00</time>
      </trkpt>
      <trkpt lat="45.03709" lon="5.40614">
        <ele>1144</ele>
        <time>2022-08-15T19:41:06+02:00</time>
      </trkpt>
      <trkpt lat="45.03688" lon="5.40607">
        <ele>1144</ele>
        <time>2022-08-15T19:42:00+02:00</time>
      </trkpt>
      <trkpt lat="45.03674" lon="5.40614">
        <ele>1147</ele>
      </trkpt>
      <trkpt lat="45.0365" lon="5.40629">
        <ele>1150</ele>
        <time>2022-08-15T19:42:25+02:00</time>
      </trkpt>
      <trkpt lat="45.03641" lon="5.40589">
        <ele>1150</ele>
        <time>2022-08-15T19:43:09+02:00</time>
      </trkpt>
      <trkpt lat="45.03619" lon="5.40543">
        <ele>1150</ele>
        <time>2022-08-15T19:43:50+02:00</time>
      </trkpt>
      <trkpt lat="45.03594" lon="5.4051">
        <ele>1149</ele>
        <time>2022-08-15T19:44:34+02:00</time>
      </trkpt>
      <trkpt lat="45.03573" lon="5.40437">
        <ele>1149</ele>
        <time>2022-08-15T19:45:18+02:00</time>
      </trkpt>
      <trkpt lat="45.03563" lon="5.40368">
        <ele>1153</ele>
        <time>2022-08-15T19:46:33+02:00</time>
      </trkpt>
      <trkpt lat="45.03548" lon="5.40324">
        <ele>1155</ele>
        <time>2022-08-15T19:47:20+02:00</time>
      </trkpt>
      <trkpt lat="45.03519" lon="5.40289">
        <ele>1157</ele>
        <time>2022-08-15T19:48:27+02:00</time>
      </trkpt>
      <trkpt lat="45.03478" lon="5.40279">
        <ele>1156</ele>
        <time>2022-08-15T19:48:44+02:00</time>
      </trkpt>
      <trkpt lat="45.03439" lon="5.40266">
        <ele>1156</ele>
        <time>2022-08-15T19:49:36+02:00</time>
      </trkpt>
      <trkpt lat="45.03401" lon="5.40222">
        <ele>1158</ele>
        <time>2022-08-15T19:50:23+02:00</time>
      </trkpt>
      <trkpt lat="45.03382" lon="5.40169">
        <ele>1165</ele>
        <time>2022-08-15T19:51:40+02:00</time>
      </trkpt>
      <trkpt lat="45.03361" lon="5.40113">
        <ele>1170</ele>
        <time>2022-08-15T19:52:25+02:00</time>
      </trkpt>
      <trkpt lat="45.03353" lon="5.4007">
        <ele>1172</ele>
        <time>2022-08-15T19:52:51+02:00</time>
      </trkpt>
      <trkpt lat="45.03331" lon="5.40053">
        <ele>1166</ele>
      </trkpt>
      <trkpt lat="45.03331" lon="5.40022">
        <ele>1163</ele>
        <time>2022-08-15T19:53:54+02:00</time>
      </trkpt>
      <trkpt lat="45.03317" lon="5.4">
        <ele>1155</ele>
        <time>2022-08-15T19:54:30+02:00</time>
      </trkpt>
      <trkpt lat="45.0332" lon="5.39989">
        <ele>1149</ele>
      </trkpt>
      <trkpt lat="45.03336" lon="5.39985">
        <ele>1153</ele>
        <time>2022-08-15T19:57:54+02:00</time>
      </trkpt>
      <trkpt lat="45.03355" lon="5.39969">
        <ele>1150</ele>
        <time>2022-08-15T19:59:02+02:00</time>
      </trkpt>
      <trkpt lat="45.03383" lon="5.39956">
        <ele>1150</ele>
        <time>2022-08-15T19:59:37+02:00</time>
      </trkpt>
      <trkpt lat="45.03396" lon="5.39941">
        <ele>1145</ele>
        <time>2022-08-15T20:00:36+02:00</time>
      </trkpt>
      <trkpt lat="45.03418" lon="5.39921">
        <ele>1142</ele>
        <time>2022-08-15T20:01:04+02:00</time>
      </trkpt>
      <trkpt lat="45.03416" lon="5.39908">
        <ele>1133</ele>
        <time>2022-08-15T20:02:48+02:00</time>
      </trkpt>
      <trkpt lat="45.03392" lon="5.39913">
        <ele>1129</ele>
      </trkpt>
      <trkpt lat="45.03371" lon="5.39917">
        <ele>1126</ele>
        <time>2022-08-15T20:04:39+02:00</time>
      </trkpt>
      <trkpt lat="45.03336" lon="5.39923">
        <ele>1116</ele>
        <time>2022-08-15T20:05:56+02:00</time>
      </trkpt>
      <trkpt lat="45.03345" lon="5.39912">
        <ele>1113</ele>
      </trkpt>
      <trkpt lat="45.03363" lon="5.39889">
        <ele>1111</ele>
        <time>2022-08-15T20:07:11+02:00</time>
      </trkpt>
      <trkpt lat="45.03409" lon="5.3986">
        <ele>1106</ele>
        <time>2022-08-15T20:08:06+02:00</time>
      </trkpt>
      <trkpt lat="45.03455" lon="5.39828">
        <ele>1082</ele>
        <time>2022-08-15T20:09:35+02:00</time>
      </trkpt>
      <trkpt lat="45.03477" lon="5.39827">
        <ele>1081</ele>
      </trkpt>
      <trkpt lat="45.03495" lon="5.39826">
        <ele>1078</ele>
        <time>2022-08-15T20:10:21+02:00</time>
      </trkpt>
      <trkpt lat="45.03533" lon="5.39816">
        <ele>1068</ele>
        <time>2022-08-15T20:12:17+02:00</time>
      </trkpt>
      <trkpt lat="45.03568" lon="5.39793">
        <ele>1055</ele>
        <time>2022-08-15T20:13:45+02:00</time>
      </trkpt>
      <trkpt lat="45.03604" lon="5.39775">
        <ele>1053</ele>
      </trkpt>
      <trkpt lat="45.03622" lon="5.39766">
        <ele>1053</ele>
        <time>2022-08-15T20:16:28+02:00</time>
      </trkpt>
      <trkpt lat="45.03639" lon="5.39758">
        <ele>1054</ele>
        <time>2022-08-15T20:17:07+02:00</time>
      </trkpt>
      <trkpt lat="45.03671" lon="5.39745">
        <ele>1052</ele>
        <time>2022-08-15T20:20:11+02:00</time>
      </trkpt>
      <trkpt lat="45.03699" lon="5.39711">
        <ele>1043</ele>
        <time>2022-08-15T20:23:06+02:00</time>
      </trkpt>
      <trkpt lat="45.03722" lon="5.39678">
        <ele>1032</ele>
        <time>2022-08-15T20:25:53+02:00</time>
      </trkpt>
      <trkpt lat="45.03707" lon="5.39681">
        <ele>1025</ele>
        <time>2022-08-15T20:26:35+02:00</time>
      </trkpt>
      <trkpt lat="45.0374" lon="5.39631">
        <ele>1006</ele>
        <time>2022-08-15T20:27:29+02:00</time>
      </trkpt>
      <trkpt lat="45.03769" lon="5.39601">
        <ele>996</ele>
        <time>2022-08-15T20:28:40+02:00</time>
      </trkpt>
      <trkpt lat="45.03784" lon="5.39583">
        <ele>989</ele>
        <time>2022-08-15T20:29:10+02:00</time>
      </trkpt>
      <trkpt lat="45.03801" lon="5.39554">
        <ele>983</ele>
        <time>2022-08-15T20:29:47+02:00</time>
      </trkpt>
      <trkpt lat="45.03833" lon="5.39516">
        <ele>974</ele>
        <time>2022-08-15T20:30:58+02:00</time>
      </trkpt>
      <trkpt lat="45.03875" lon="5.3946">
        <ele>956</ele>
        <time>2022-08-15T20:33:23+02:00</time>
      </trkpt>
      <trkpt lat="45.03904" lon="5.39432">
        <ele>951</ele>
        <time>2022-08-15T20:34:35+02:00</time>
      </trkpt>
      <trkpt lat="45.03914" lon="5.3941">
        <ele>944</ele>
        <time>2022-08-15T20:35:20+02:00</time>
      </trkpt>
      <trkpt lat="45.03934" lon="5.39372">
        <ele>935</ele>
        <time>2022-08-15T20:36:34+02:00</time>
      </trkpt>
      <trkpt lat="45.03944" lon="5.39344">
        <ele>927</ele>
        <time>2022-08-15T20:37:02+02:00</time>
      </trkpt>
      <trkpt lat="45.03963" lon="5.39308">
        <ele>915</ele>
        <time>2022-08-15T20:38:06+02:00</time>
      </trkpt>
      <trkpt lat="45.03972" lon="5.3929">
        <ele>909</ele>
        <time>2022-08-15T20:38:52+02:00</time>
      </trkpt>
      <trkpt lat="45.03997" lon="5.39236">
        <ele>890</ele>
        <time>2022-08-15T20:41:07+02:00</time>
      </trkpt>
      <trkpt lat="45.04023" lon="5.39212">
        <ele>890</ele>
        <time>2022-08-15T20:43:01+02:00</time>
      </trkpt>
      <trkpt lat="45.04037" lon="5.39201">
        <ele>891</ele>
      </trkpt>
      <trkpt lat="45.04048" lon="5.39183">
        <ele>885</ele>
        <time>2022-08-15T20:44:41+02:00</time>
      </trkpt>
      <trkpt lat="45.04074" lon="5.39166">
        <ele>882</ele>
        <time>2022-08-15T20:45:06+02:00</time>
      </trkpt>
      <trkpt lat="45.04104" lon="5.3916">
        <ele>885</ele>
        <time>2022-08-15T20:46:05+02:00</time>
      </trkpt>
      <trkpt lat="45.04138" lon="5.39163">
        <ele>888</ele>
        <time>2022-08-15T20:47:53+02:00</time>
      </trkpt>
      <trkpt lat="45.0417" lon="5.39155">
        <ele>888</ele>
        <time>2022-08-15T20:48:49+02:00</time>
      </trkpt>
      <trkpt lat="45.0422" lon="5.39115">
        <ele>893</ele>
        <time>2022-08-15T20:51:23+02:00</time>
      </trkpt>
      <trkpt lat="45.04264" lon="5.39054">
        <ele>875</ele>
        <time>2022-08-15T20:52:04+02:00</time>
      </trkpt>
      <trkpt lat="45.0433" lon="5.38975">
        <ele>860</ele>
        <time>2022-08-15T20:55:38+02:00</time>
      </trkpt>
      <trkpt lat="45.04355" lon="5.38942">
        <ele>851</ele>
      </trkpt>
      <trkpt lat="45.04385" lon="5.38891">
        <ele>847</ele>
      </trkpt>
      <trkpt lat="45.04402" lon="5.38855">
        <ele>840</ele>
        <time>2022-08-15T20:57:20+02:00</time>
      </trkpt>
      <trkpt lat="45.04404" lon="5.38822">
        <ele>826</ele>
        <time>2022-08-15T20:57:55+02:00</time>
      </trkpt>
      <trkpt lat="45.04411" lon="5.38787">
        <ele>816</ele>
        <time>2022-08-15T21:00:55+02:00</time>
      </trkpt>
      <trkpt lat="45.04421" lon="5.38765">
        <ele>809</ele>
        <time>2022-08-15T21:01:22+02:00</time>
      </trkpt>
      <trkpt lat="45.04454" lon="5.38745">
        <ele>810</ele>
        <time>2022-08-15T21:02:34+02:00</time>
      </trkpt>
      <trkpt lat="45.04459" lon="5.38721">
        <ele>804</ele>
        <time>2022-08-15T21:03:12+02:00</time>
      </trkpt>
      <trkpt lat="45.04464" lon="5.38669">
        <ele>796</ele>
        <time>2022-08-15T21:04:01+02:00</time>
      </trkpt>
      <trkpt lat="45.04471" lon="5.38598">
        <ele>784</ele>
        <time>2022-08-15T21:04:52+02:00</time>
      </trkpt>
      <trkpt lat="45.04486" lon="5.38562">
        <ele>782</ele>
        <time>2022-08-15T21:06:13+02:00</time>
      </trkpt>
      <trkpt lat="45.04504" lon="5.38515">
        <ele>773</ele>
        <time>2022-08-15T21:07:04+02:00</time>
      </trkpt>
      <trkpt lat="45.04533" lon="5.38466">
        <ele>765</ele>
        <time>2022-08-15T21:08:28+02:00</time>
      </trkpt>
      <trkpt lat="45.04561" lon="5.38424">
        <ele>762</ele>
        <time>2022-08-15T21:09:25+02:00</time>
      </trkpt>
      <trkpt lat="45.04587" lon="5.38342">
        <ele>743</ele>
        <time>2022-08-15T21:11:11+02:00</time>
      </trkpt>
      <trkpt lat="45.0462" lon="5.38274">
        <ele>729</ele>
        <time>2022-08-15T21:12:44+02:00</time>
      </trkpt>
      <trkpt lat="45.0465" lon="5.38258">
        <ele>729</ele>
        <time>2022-08-15T21:13:18+02:00</time>
      </trkpt>
      <trkpt lat="45.04676" lon="5.38234">
        <ele>726</ele>
        <time>2022-08-15T21:14:10+02:00</time>
      </trkpt>
      <trkpt lat="45.04698" lon="5.38184">
        <ele>715</ele>
        <time>2022-08-15T21:15:21+02:00</time>
      </trkpt>
      <trkpt lat="45.0471" lon="5.38156">
        <ele>711</ele>
        <time>2022-08-15T21:15:47+02:00</time>
      </trkpt>
      <trkpt lat="45.04727" lon="5.38086">
        <ele>694</ele>
        <time>2022-08-15T21:17:33+02:00</time>
      </trkpt>
      <trkpt lat="45.04739" lon="5.38063">
        <ele>691</ele>
        <time>2022-08-15T21:18:12+02:00</time>
      </trkpt>
      <trkpt lat="45.04761" lon="5.3801">
        <ele>680</ele>
        <time>2022-08-15T21:19:49+02:00</time>
      </trkpt>
      <trkpt lat="45.04789" lon="5.37949">
        <ele>662</ele>
        <time>2022-08-15T21:21:22+02:00</time>
      </trkpt>
      <trkpt lat="45.04816" lon="5.37892">
        <ele>652</ele>
        <time>2022-08-15T21:22:21+02:00</time>
      </trkpt>
      <trkpt lat="45.04846" lon="5.37826">
        <ele>643</ele>
        <time>2022-08-15T21:23:55+02:00</time>
      </trkpt>
      <trkpt lat="45.04861" lon="5.37788">
        <ele>642</ele>
      </trkpt>
      <trkpt lat="45.04872" lon="5.3775">
        <ele>641</ele>
        <time>2022-08-15T21:25:52+02:00</time>
      </trkpt>
      <trkpt lat="45.04871" lon="5.37715">
        <ele>636</ele>
        <time>2022-08-15T21:26:10+02:00</time>
      </trkpt>
      <trkpt lat="45.04873" lon="5.37661">
        <ele>629</ele>
        <time>2022-08-15T21:27:09+02:00</time>
      </trkpt>
      <trkpt lat="45.04879" lon="5.37628">
        <ele>625</ele>
        <time>2022-08-15T21:28:10+02:00</time>
      </trkpt>
      <trkpt lat="45.04894" lon="5.37585">
        <ele>619</ele>
        <time>2022-08-15T21:28:33+02:00</time>
      </trkpt>
      <trkpt lat="45.04908" lon="5.37557">
        <ele>614</ele>
        <time>2022-08-15T21:29:00+02:00</time>
      </trkpt>
      <trkpt lat="45.04926" lon="5.37534">
        <ele>609</ele>
        <time>2022-08-15T21:29:31+02:00</time>
      </trkpt>
      <trkpt lat="45.04957" lon="5.37519">
        <ele>610</ele>
        <time>2022-08-15T21:30:54+02:00</time>
      </trkpt>
      <trkpt lat="45.04988" lon="5.3747">
        <ele>600</ele>
        <time>2022-08-15T21:31:29+02:00</time>
      </trkpt>
      <trkpt lat="45.05009" lon="5.37448">
        <ele>597</ele>
        <time>2022-08-15T21:32:03+02:00</time>
      </trkpt>
      <trkpt lat="45.05031" lon="5.37443">
        <ele>594</ele>
        <time>2022-08-15T21:32:55+02:00</time>
      </trkpt>
      <trkpt lat="45.05063" lon="5.37471">
        <ele>591</ele>
        <time>2022-08-15T21:34:03+02:00</time>
      </trkpt>
      <trkpt lat="45.05085" lon="5.37482">
        <ele>588</ele>
        <time>2022-08-15T21:34:48+02:00</time>
      </trkpt>
      <trkpt lat="45.05121" lon="5.37479">
        <ele>587</ele>
        <time>2022-08-15T21:35:12+02:00</time>
      </trkpt>
      <trkpt lat="45.05155" lon="5.37457">
        <ele>587</ele>
        <time>2022-08-15T21:35:39+02:00</time>
      </trkpt>
      <trkpt lat="45.05184" lon="5.37425">
        <ele>586</ele>
        <time>2022-08-15T21:37:21+02:00</time>
      </trkpt>
      <trkpt lat="45.052" lon="5.3739">
        <ele>584</ele>
        <time>2022-08-15T21:37:43+02:00</time>
      </trkpt>
      <trkpt lat="45.05207" lon="5.37353">
        <ele>581</ele>
        <time>2022-08-15T21:38:09+02:00</time>
      </trkpt>
      <trkpt lat="45.05227" lon="5.37269">
        <ele>574</ele>
        <time>2022-08-15T21:40:12+02:00</time>
      </trkpt>
      <trkpt lat="45.05238" lon="5.37241">
        <ele>572</ele>
        <time>2022-08-15T21:40:35+02:00</time>
      </trkpt>
      <trkpt lat="45.05263" lon="5.37191">
        <ele>568</ele>
      </trkpt>
      <trkpt lat="45.05286" lon="5.37136">
        <ele>566</ele>
        <time>2022-08-15T21:41:27+02:00</time>
      </trkpt>
      <trkpt lat="45.05295" lon="5.37163">
        <ele>569</ele>
        <time>2022-08-15T21:42:33+02:00</time>
      </trkpt>
      <trkpt lat="45.05301" lon="5.37186">
        <ele>570</ele>
        <time>2022-08-15T21:43:08+02:00</time>
      </trkpt>
      <trkpt lat="45.05322" lon="5.37186">
        <ele>570</ele>
        <time>2022-08-15T21:43:42+02:00</time>
      </trkpt>
      <trkpt lat="45.0537" lon="5.37185">
        <ele>560</ele>
        <time>2022-08-15T21:45:34+02:00</time>
      </trkpt>
      <trkpt lat="45.05391" lon="5.37183">
        <ele>553</ele>
        <time>2022-08-15T21:46:29+02:00</time>
      </trkpt>
      <trkpt lat="45.05418" lon="5.37183">
        <ele>543</ele>
        <time>2022-08-15T21:47:14+02:00</time>
      </trkpt>
      <trkpt lat="45.05433" lon="5.37193">
        <ele>537</ele>
        <time>2022-08-15T21:47:56+02:00</time>
      </trkpt>
      <trkpt lat="45.05441" lon="5.3721">
        <ele>534</ele>
        <time>2022-08-15T21:48:47+02:00</time>
      </trkpt>
      <trkpt lat="45.05442" lon="5.37234">
        <ele>532</ele>
        <time>2022-08-15T21:49:17+02:00</time>
      </trkpt>
      <trkpt lat="45.05443" lon="5.37265">
        <ele>530</ele>
        <time>2022-08-15T21:49:43+02:00</time>
      </trkpt>
      <trkpt lat="45.05442" lon="5.37284">
        <ele>529</ele>
        <time>2022-08-15T21:50:34+02:00</time>
      </trkpt>
      <trkpt lat="45.05457" lon="5.37336">
        <ele>530</ele>
        <time>2022-08-15T21:51:51+02:00</time>
      </trkpt>
      <trkpt lat="45.05486" lon="5.37344">
        <ele>529</ele>
      </trkpt>
      <trkpt lat="45.05521" lon="5.37347">
        <ele>528</ele>
        <time>2022-08-15T21:52:25+02:00</time>
      </trkpt>
      <trkpt lat="45.05578" lon="5.37345">
        <ele>528</ele>
        <time>2022-08-15T21:52:47+02:00</time>
      </trkpt>
      <trkpt lat="45.05595" lon="5.37344">
        <ele>527</ele>
        <time>2022-08-15T21:59:31+02:00</time>
      </trkpt>
      <trkpt lat="45.05616" lon="5.37342">
        <ele>524</ele>
        <time>2022-08-15T21:59:59+02:00</time>
      </trkpt>
      <trkpt lat="45.05638" lon="5.37352">
        <ele>521</ele>
        <time>2022-08-15T22:00:26+02:00</time>
      </trkpt>
      <trkpt lat="45.05658" lon="5.37372">
        <ele>518</ele>
        <time>2022-08-15T22:01:10+02:00</time>
      </trkpt>
      <trkpt lat="45.05672" lon="5.37386">
        <ele>516</ele>
        <time>2022-08-15T22:01:35+02:00</time>
      </trkpt>
      <trkpt lat="45.05694" lon="5.37404">
        <ele>517</ele>
        <time>2022-08-15T22:02:42+02:00</time>
      </trkpt>
      <trkpt lat="45.05711" lon="5.374">
        <ele>518</ele>
        <time>2022-08-15T22:03:02+02:00</time>
      </trkpt>
      <trkpt lat="45.05726" lon="5.37358">
        <ele>511</ele>
        <time>2022-08-15T22:03:43+02:00</time>
      </trkpt>
      <trkpt lat="45.0574" lon="5.37334">
        <ele>512</ele>
        <time>2022-08-15T22:04:05+02:00</time>
      </trkpt>
      <trkpt lat="45.05762" lon="5.37319">
        <ele>515</ele>
        <time>2022-08-15T22:04:30+02:00</time>
      </trkpt>
    </trkseg>
  </trk>
</gpx>